sensor_id;sensor_type;location;lat;lon;timestamp;pressure;altitude;pressure_sealevel;temperature;humidity
75794;BME280;64418;47.536;19.074;2024-01-06T00:01:52;99440.72;;;4.70;100.00
75794;BME280;64418;47.536;19.074;2024-01-06T00:04:18;99361.78;;;4.16;100.00
75794;BME280;64418;47.536;19.074;2024-01-06T00:06:47;99439.41;;;4.60;100.00
75794;BME280;64418;47.536;19.074;2024-01-06T00:09:17;99432.81;;;4.62;100.00
75794;BME280;64418;47.536;19.074;2024-01-06T00:11:44;99406.44;;;4.45;100.00
75794;BME280;64418;47.536;19.074;2024-01-06T00:14:09;99439.06;;;4.69;100.00
75794;BME280;64418;47.536;19.074;2024-01-06T00:16:35;99432.13;;;4.75;100.00
75794;BME280;64418;47.536;19.074;2024-01-06T00:19:01;99421.81;;;4.78;100.00
75794;BME280;64418;47.536;19.074;2024-01-06T00:21:27;99411.09;;;4.78;100.00
75794;BME280;64418;47.536;19.074;2024-01-06T00:23:55;99422.31;;;4.89;100.00
75794;BME280;64418;47.536;19.074;2024-01-06T00:26:21;99409.47;;;4.84;100.00
75794;BME280;64418;47.536;19.074;2024-01-06T00:28:48;99414.53;;;4.94;100.00
75794;BME280;64418;47.536;19.074;2024-01-06T00:31:21;99414.91;;;4.91;100.00
75794;BME280;64418;47.536;19.074;2024-01-06T00:33:50;99331.03;;;4.33;100.00
75794;BME280;64418;47.536;19.074;2024-01-06T00:36:19;99422.22;;;4.75;100.00
75794;BME280;64418;47.536;19.074;2024-01-06T00:38:46;99430.88;;;4.77;100.00
75794;BME280;64418;47.536;19.074;2024-01-06T00:41:13;99419.66;;;4.67;100.00
75794;BME280;64418;47.536;19.074;2024-01-06T00:43:39;99396.78;;;4.50;100.00
75794;BME280;64418;47.536;19.074;2024-01-06T00:46:07;99409.56;;;4.48;100.00
75794;BME280;64418;47.536;19.074;2024-01-06T00:48:33;99403.75;;;4.45;100.00
75794;BME280;64418;47.536;19.074;2024-01-06T00:50:59;99411.91;;;4.36;100.00
75794;BME280;64418;47.536;19.074;2024-01-06T00:53:25;99409.88;;;4.38;100.00
75794;BME280;64418;47.536;19.074;2024-01-06T00:55:51;99410.91;;;4.37;100.00
75794;BME280;64418;47.536;19.074;2024-01-06T00:58:19;99371.22;;;4.12;100.00
75794;BME280;64418;47.536;19.074;2024-01-06T01:00:45;99403.16;;;4.28;100.00
75794;BME280;64418;47.536;19.074;2024-01-06T01:03:11;99344.53;;;3.82;100.00
75794;BME280;64418;47.536;19.074;2024-01-06T01:05:37;99400.25;;;4.23;100.00
75794;BME280;64418;47.536;19.074;2024-01-06T01:08:03;99397.75;;;4.21;100.00
75794;BME280;64418;47.536;19.074;2024-01-06T01:10:30;99391.41;;;4.08;100.00
75794;BME280;64418;47.536;19.074;2024-01-06T01:12:55;99398.97;;;4.19;100.00
75794;BME280;64418;47.536;19.074;2024-01-06T01:15:23;99398.41;;;4.09;100.00
75794;BME280;64418;47.536;19.074;2024-01-06T01:17:49;99384.78;;;4.04;100.00
75794;BME280;64418;47.536;19.074;2024-01-06T01:20:15;99381.38;;;3.95;100.00
75794;BME280;64418;47.536;19.074;2024-01-06T01:22:41;99382.19;;;3.96;100.00
75794;BME280;64418;47.536;19.074;2024-01-06T01:25:07;99369.75;;;3.88;100.00
75794;BME280;64418;47.536;19.074;2024-01-06T01:27:33;99381.81;;;3.99;100.00
75794;BME280;64418;47.536;19.074;2024-01-06T01:29:59;99391.41;;;4.08;100.00
75794;BME280;64418;47.536;19.074;2024-01-06T01:32:29;99397.22;;;4.11;100.00
75794;BME280;64418;47.536;19.074;2024-01-06T01:34:55;99368.47;;;4.05;100.00
75794;BME280;64418;47.536;19.074;2024-01-06T01:37:21;99393.00;;;4.23;100.00
75794;BME280;64418;47.536;19.074;2024-01-06T01:39:47;99387.91;;;4.28;100.00
75794;BME280;64418;47.536;19.074;2024-01-06T01:42:13;99399.75;;;4.34;100.00
75794;BME280;64418;47.536;19.074;2024-01-06T01:44:39;99394.88;;;4.44;100.00
75794;BME280;64418;47.536;19.074;2024-01-06T01:47:05;99375.47;;;4.63;100.00
75794;BME280;64418;47.536;19.074;2024-01-06T01:49:35;99378.97;;;4.64;100.00
75794;BME280;64418;47.536;19.074;2024-01-06T01:52:04;99366.41;;;4.64;100.00
75794;BME280;64418;47.536;19.074;2024-01-06T01:54:31;99363.63;;;4.58;100.00
75794;BME280;64418;47.536;19.074;2024-01-06T01:56:58;99310.00;;;4.30;100.00
75794;BME280;64418;47.536;19.074;2024-01-06T01:59:24;99359.38;;;4.63;100.00
75794;BME280;64418;47.536;19.074;2024-01-06T02:01:51;99362.69;;;4.65;100.00
75794;BME280;64418;47.536;19.074;2024-01-06T02:04:17;99358.19;;;4.72;100.00
75794;BME280;64418;47.536;19.074;2024-01-06T02:06:45;99345.81;;;4.71;100.00
75794;BME280;64418;47.536;19.074;2024-01-06T02:09:12;99361.28;;;4.69;100.00
75794;BME280;64418;47.536;19.074;2024-01-06T02:11:38;99349.97;;;4.74;100.00
75794;BME280;64418;47.536;19.074;2024-01-06T02:14:04;99343.16;;;4.71;100.00
75794;BME280;64418;47.536;19.074;2024-01-06T02:16:30;99347.09;;;4.75;100.00
75794;BME280;64418;47.536;19.074;2024-01-06T02:18:56;99347.72;;;4.77;100.00
75794;BME280;64418;47.536;19.074;2024-01-06T02:21:22;99350.41;;;4.77;100.00
75794;BME280;64418;47.536;19.074;2024-01-06T02:23:54;99351.69;;;4.81;100.00
75794;BME280;64418;47.536;19.074;2024-01-06T02:26:20;99340.94;;;4.81;100.00
75794;BME280;64418;47.536;19.074;2024-01-06T02:28:46;99311.97;;;4.70;100.00
75794;BME280;64418;47.536;19.074;2024-01-06T02:31:12;99344.06;;;4.85;100.00
75794;BME280;64418;47.536;19.074;2024-01-06T02:33:38;99351.28;;;4.84;100.00
75794;BME280;64418;47.536;19.074;2024-01-06T02:36:05;99343.88;;;4.87;100.00
75794;BME280;64418;47.536;19.074;2024-01-06T02:38:31;99343.47;;;4.90;100.00
75794;BME280;64418;47.536;19.074;2024-01-06T02:40:59;99341.41;;;4.92;100.00
75794;BME280;64418;47.536;19.074;2024-01-06T02:43:25;99329.66;;;4.93;100.00
75794;BME280;64418;47.536;19.074;2024-01-06T02:45:51;99336.06;;;4.92;100.00
75794;BME280;64418;47.536;19.074;2024-01-06T02:48:17;99327.00;;;4.93;100.00
75794;BME280;64418;47.536;19.074;2024-01-06T02:50:43;99324.31;;;4.93;100.00
75794;BME280;64418;47.536;19.074;2024-01-06T02:53:09;99300.31;;;4.84;100.00
75794;BME280;64418;47.536;19.074;2024-01-06T02:55:35;99315.22;;;4.94;100.00
75794;BME280;64418;47.536;19.074;2024-01-06T02:58:03;99315.22;;;4.94;100.00
75794;BME280;64418;47.536;19.074;2024-01-06T03:00:29;99311.53;;;4.95;100.00
75794;BME280;64418;47.536;19.074;2024-01-06T03:02:55;99280.25;;;4.80;100.00
75794;BME280;64418;47.536;19.074;2024-01-06T03:05:21;99313.81;;;4.98;100.00
75794;BME280;64418;47.536;19.074;2024-01-06T03:07:47;99316.50;;;4.98;100.00
75794;BME280;64418;47.536;19.074;2024-01-06T03:10:13;99278.22;;;4.82;100.00
75794;BME280;64418;47.536;19.074;2024-01-06T03:12:39;99303.09;;;4.98;100.00
75794;BME280;64418;47.536;19.074;2024-01-06T03:15:08;99308.44;;;4.98;100.00
75794;BME280;64418;47.536;19.074;2024-01-06T03:17:33;99302.66;;;4.94;100.00
75794;BME280;64418;47.536;19.074;2024-01-06T03:19:59;99277.81;;;4.85;100.00
75794;BME280;64418;47.536;19.074;2024-01-06T03:22:25;99276.00;;;4.93;100.00
75794;BME280;64418;47.536;19.074;2024-01-06T03:24:51;99280.34;;;4.94;100.00
75794;BME280;64418;47.536;19.074;2024-01-06T03:27:17;99277.03;;;4.92;100.00
75794;BME280;64418;47.536;19.074;2024-01-06T03:29:43;99274.75;;;4.95;100.00
75794;BME280;64418;47.536;19.074;2024-01-06T03:32:11;99282.63;;;4.97;100.00
75794;BME280;64418;47.536;19.074;2024-01-06T03:34:38;99247.84;;;4.75;100.00
75794;BME280;64418;47.536;19.074;2024-01-06T03:37:04;99276.66;;;4.95;100.00
75794;BME280;64418;47.536;19.074;2024-01-06T03:39:30;99271.28;;;4.95;100.00
75794;BME280;64418;47.536;19.074;2024-01-06T03:41:56;99285.28;;;4.90;100.00
75794;BME280;64418;47.536;19.074;2024-01-06T03:44:22;99241.97;;;4.65;100.00
75794;BME280;64418;47.536;19.074;2024-01-06T03:46:47;99261.87;;;4.77;100.00
75794;BME280;64418;47.536;19.074;2024-01-06T03:49:15;99281.12;;;4.87;100.00
75794;BME280;64418;47.536;19.074;2024-01-06T03:51:41;99282.78;;;4.89;100.00
75794;BME280;64418;47.536;19.074;2024-01-06T03:54:07;99285.47;;;4.89;100.00
75794;BME280;64418;47.536;19.074;2024-01-06T03:56:33;99290.66;;;4.90;100.00
75794;BME280;64418;47.536;19.074;2024-01-06T03:58:59;99289.81;;;4.90;100.00
75794;BME280;64418;47.536;19.074;2024-01-06T04:01:25;99295.81;;;4.92;100.00
75794;BME280;64418;47.536;19.074;2024-01-06T04:03:51;99265.78;;;4.75;100.00
75794;BME280;64418;47.536;19.074;2024-01-06T04:06:19;99272.78;;;4.76;100.00
75794;BME280;64418;47.536;19.074;2024-01-06T04:08:45;99317.09;;;4.93;100.00
75794;BME280;64418;47.536;19.074;2024-01-06T04:11:11;99310.00;;;4.85;100.00
75794;BME280;64418;47.536;19.074;2024-01-06T04:13:37;99314.87;;;5.03;100.00
75794;BME280;64418;47.536;19.074;2024-01-06T04:16:04;99316.94;;;5.01;100.00
75794;BME280;64418;47.536;19.074;2024-01-06T04:18:30;99315.09;;;5.02;100.00
75794;BME280;64418;47.536;19.074;2024-01-06T04:20:56;99313.41;;;5.01;100.00
75794;BME280;64418;47.536;19.074;2024-01-06T04:23:24;99299.16;;;5.00;100.00
75794;BME280;64418;47.536;19.074;2024-01-06T04:25:54;99303.94;;;5.05;100.00
75794;BME280;64418;47.536;19.074;2024-01-06T04:28:23;99284.19;;;4.84;100.00
75794;BME280;64418;47.536;19.074;2024-01-06T04:30:49;99307.19;;;4.94;100.00
75794;BME280;64418;47.536;19.074;2024-01-06T04:33:15;99317.09;;;4.93;100.00
75794;BME280;64418;47.536;19.074;2024-01-06T04:35:41;99319.59;;;4.95;100.00
75794;BME280;64418;47.536;19.074;2024-01-06T04:38:06;99322.87;;;4.97;100.00
75794;BME280;64418;47.536;19.074;2024-01-06T04:40:34;99327.41;;;4.96;100.00
75794;BME280;64418;47.536;19.074;2024-01-06T04:43:00;99299.25;;;4.79;100.00
75794;BME280;64418;47.536;19.074;2024-01-06T04:45:26;99316.25;;;4.93;100.00
75794;BME280;64418;47.536;19.074;2024-01-06T04:47:52;99308.59;;;4.90;100.00
75794;BME280;64418;47.536;19.074;2024-01-06T04:50:18;99315.19;;;4.87;100.00
75794;BME280;64418;47.536;19.074;2024-01-06T04:52:44;99311.69;;;4.87;100.00
75794;BME280;64418;47.536;19.074;2024-01-06T04:55:10;99307.50;;;4.84;100.00
75794;BME280;64418;47.536;19.074;2024-01-06T04:57:38;99312.06;;;4.83;100.00
75794;BME280;64418;47.536;19.074;2024-01-06T05:00:05;99309.59;;;4.82;100.00
75794;BME280;64418;47.536;19.074;2024-01-06T05:02:31;99240.38;;;4.43;100.00
75794;BME280;64418;47.536;19.074;2024-01-06T05:04:57;99305.03;;;4.82;100.00
75794;BME280;64418;47.536;19.074;2024-01-06T05:07:23;99303.38;;;4.81;100.00
75794;BME280;64418;47.536;19.074;2024-01-06T05:09:49;99296.56;;;4.79;100.00
75794;BME280;64418;47.536;19.074;2024-01-06T05:12:15;99301.72;;;4.80;100.00
75794;BME280;64418;47.536;19.074;2024-01-06T05:14:42;99295.72;;;4.78;100.00
75794;BME280;64418;47.536;19.074;2024-01-06T05:17:08;99299.44;;;4.77;100.00
75794;BME280;64418;47.536;19.074;2024-01-06T05:19:34;99293.88;;;4.79;100.00
75794;BME280;64418;47.536;19.074;2024-01-06T05:22:00;99293.03;;;4.78;100.00
75794;BME280;64418;47.536;19.074;2024-01-06T05:24:26;99288.69;;;4.77;100.00
75794;BME280;64418;47.536;19.074;2024-01-06T05:26:52;99287.69;;;4.78;100.00
75794;BME280;64418;47.536;19.074;2024-01-06T05:29:18;99291.19;;;4.79;100.00
75794;BME280;64418;47.536;19.074;2024-01-06T05:31:45;99293.03;;;4.78;100.00
75794;BME280;64418;47.536;19.074;2024-01-06T05:34:11;99289.09;;;4.74;100.00
75794;BME280;64418;47.536;19.074;2024-01-06T05:36:37;99294.72;;;4.79;100.00
75794;BME280;64418;47.536;19.074;2024-01-06T05:39:03;99287.28;;;4.81;100.00
75794;BME280;64418;47.536;19.074;2024-01-06T05:41:29;99300.06;;;4.79;100.00
75794;BME280;64418;47.536;19.074;2024-01-06T05:43:55;99300.06;;;4.79;100.00
75794;BME280;64418;47.536;19.074;2024-01-06T05:46:21;99301.09;;;4.78;100.00
75794;BME280;64418;47.536;19.074;2024-01-06T05:48:50;99303.78;;;4.78;100.00
75794;BME280;64418;47.536;19.074;2024-01-06T05:51:15;99300.06;;;4.79;100.00
75794;BME280;64418;47.536;19.074;2024-01-06T05:53:42;99307.28;;;4.79;100.00
75794;BME280;64418;47.536;19.074;2024-01-06T05:56:08;99317.41;;;4.83;100.00
75794;BME280;64418;47.536;19.074;2024-01-06T05:58:34;99332.31;;;4.86;100.00
75794;BME280;64418;47.536;19.074;2024-01-06T06:01:00;99330.47;;;4.87;100.00
75794;BME280;64418;47.536;19.074;2024-01-06T06:03:29;99331.91;;;4.89;100.00
75794;BME280;64418;47.536;19.074;2024-01-06T06:05:57;99334.78;;;4.87;100.00
75794;BME280;64418;47.536;19.074;2024-01-06T06:08:23;99325.72;;;4.89;100.00
75794;BME280;64418;47.536;19.074;2024-01-06T06:10:49;99324.06;;;4.87;100.00
75794;BME280;64418;47.536;19.074;2024-01-06T06:13:16;99329.63;;;4.86;100.00
75794;BME280;64418;47.536;19.074;2024-01-06T06:15:42;99322.41;;;4.87;100.00
75794;BME280;64418;47.536;19.074;2024-01-06T06:18:07;99320.34;;;4.89;100.00
75794;BME280;64418;47.536;19.074;2024-01-06T06:20:34;99311.03;;;4.84;100.00
75794;BME280;64418;47.536;19.074;2024-01-06T06:23:03;99327.00;;;4.93;100.00
75794;BME280;64418;47.536;19.074;2024-01-06T06:25:29;99295.34;;;4.81;100.00
75794;BME280;64418;47.536;19.074;2024-01-06T06:27:55;99326.38;;;4.91;100.00
75794;BME280;64418;47.536;19.074;2024-01-06T06:30:21;99334.03;;;4.94;100.00
75794;BME280;64418;47.536;19.074;2024-01-06T06:32:48;99334.47;;;4.97;100.00
75794;BME280;64418;47.536;19.074;2024-01-06T06:35:13;99330.31;;;4.95;100.00
75794;BME280;64418;47.536;19.074;2024-01-06T06:37:39;99332.34;;;4.93;100.00
75794;BME280;64418;47.536;19.074;2024-01-06T06:40:08;99331.34;;;4.94;100.00
75794;BME280;64418;47.536;19.074;2024-01-06T06:42:33;99339.00;;;4.97;100.00
75794;BME280;64418;47.536;19.074;2024-01-06T06:44:59;99332.16;;;4.94;100.00
75794;BME280;64418;47.536;19.074;2024-01-06T06:47:26;99334.03;;;4.94;100.00
75794;BME280;64418;47.536;19.074;2024-01-06T06:49:52;99337.31;;;4.96;100.00
75794;BME280;64418;47.536;19.074;2024-01-06T06:52:17;99325.13;;;4.93;100.00
75794;BME280;64418;47.536;19.074;2024-01-06T06:54:43;99313.97;;;4.90;100.00
75794;BME280;64418;47.536;19.074;2024-01-06T06:57:10;99305.03;;;4.82;100.00
75794;BME280;64418;47.536;19.074;2024-01-06T06:59:36;99318.50;;;4.89;100.00
75794;BME280;64418;47.536;19.074;2024-01-06T07:02:02;99314.59;;;4.92;100.00
75794;BME280;64418;47.536;19.074;2024-01-06T07:04:28;99307.06;;;4.80;100.00
75794;BME280;64418;47.536;19.074;2024-01-06T07:06:54;99322.84;;;4.90;100.00
75794;BME280;64418;47.536;19.074;2024-01-06T07:09:20;99321.44;;;4.94;100.00
75794;BME280;64418;47.536;19.074;2024-01-06T07:11:45;99320.34;;;4.89;100.00
75794;BME280;64418;47.536;19.074;2024-01-06T07:14:13;99325.72;;;4.89;100.00
75794;BME280;64418;47.536;19.074;2024-01-06T07:16:39;99330.06;;;4.90;100.00
75794;BME280;64418;47.536;19.074;2024-01-06T07:19:05;99335.44;;;4.90;100.00
75794;BME280;64418;47.536;19.074;2024-01-06T07:21:31;99338.13;;;4.90;100.00
75794;BME280;64418;47.536;19.074;2024-01-06T07:23:57;99332.34;;;4.93;100.00
75794;BME280;64418;47.536;19.074;2024-01-06T07:26:23;99324.50;;;4.91;100.00
75794;BME280;64418;47.536;19.074;2024-01-06T07:28:50;99316.66;;;4.90;100.00
75794;BME280;64418;47.536;19.074;2024-01-06T07:31:17;99316.66;;;4.90;100.00
75794;BME280;64418;47.536;19.074;2024-01-06T07:33:43;99323.28;;;4.94;100.00
75794;BME280;64418;47.536;19.074;2024-01-06T07:36:09;99312.56;;;4.94;100.00
75794;BME280;64418;47.536;19.074;2024-01-06T07:38:35;99317.09;;;4.93;100.00
75794;BME280;64418;47.536;19.074;2024-01-06T07:41:01;99318.53;;;4.96;100.00
75794;BME280;64418;47.536;19.074;2024-01-06T07:43:27;99324.56;;;4.98;100.00
75794;BME280;64418;47.536;19.074;2024-01-06T07:45:54;99329.28;;;4.96;100.00
75794;BME280;64418;47.536;19.074;2024-01-06T07:48:21;99322.87;;;4.97;100.00
75794;BME280;64418;47.536;19.074;2024-01-06T07:50:47;99298.44;;;4.85;100.00
75794;BME280;64418;47.536;19.074;2024-01-06T07:53:13;99320.03;;;4.98;100.00
75794;BME280;64418;47.536;19.074;2024-01-06T07:55:39;99318.34;;;4.97;100.00
75794;BME280;64418;47.536;19.074;2024-01-06T07:58:05;99326.19;;;4.99;100.00
75794;BME280;64418;47.536;19.074;2024-01-06T08:00:31;99315.84;;;4.96;100.00
75794;BME280;64418;47.536;19.074;2024-01-06T08:02:56;99332.03;;;5.02;100.00
75794;BME280;64418;47.536;19.074;2024-01-06T08:05:25;99317.91;;;4.94;100.00
75794;BME280;64418;47.536;19.074;2024-01-06T08:07:51;99319.81;;;5.00;100.00
75794;BME280;64418;47.536;19.074;2024-01-06T08:10:17;99308.88;;;5.01;100.00
75794;BME280;64418;47.536;19.074;2024-01-06T08:12:44;99307.87;;;5.02;100.00
75794;BME280;64418;47.536;19.074;2024-01-06T08:15:10;99328.72;;;5.07;100.00
75794;BME280;64418;47.536;19.074;2024-01-06T08:17:36;99327.53;;;5.09;100.00
75794;BME280;64418;47.536;19.074;2024-01-06T08:20:02;99336.41;;;5.10;100.00
75794;BME280;64418;47.536;19.074;2024-01-06T08:22:31;99339.03;;;5.03;100.00
75794;BME280;64418;47.536;19.074;2024-01-06T08:24:58;99336.56;;;5.02;100.00
75794;BME280;64418;47.536;19.074;2024-01-06T08:27:25;99327.47;;;5.03;100.00
75794;BME280;64418;47.536;19.074;2024-01-06T08:29:51;99329.38;;;5.09;100.00
75794;BME280;64418;47.536;19.074;2024-01-06T08:32:18;99235.56;;;4.60;100.00
75794;BME280;64418;47.536;19.074;2024-01-06T08:34:44;99281.31;;;4.79;100.00
75794;BME280;64418;47.536;19.074;2024-01-06T08:37:10;99343.66;;;5.16;100.00
75794;BME280;64418;47.536;19.074;2024-01-06T08:39:38;99336.63;;;5.15;100.00
75794;BME280;64418;47.536;19.074;2024-01-06T08:42:05;99343.25;;;5.19;100.00
75794;BME280;64418;47.536;19.074;2024-01-06T08:44:31;99342.00;;;5.15;100.00
75794;BME280;64418;47.536;19.074;2024-01-06T08:46:57;99337.50;;;5.22;100.00
75794;BME280;64418;47.536;19.074;2024-01-06T08:49:23;99341.59;;;5.18;100.00
75794;BME280;64418;47.536;19.074;2024-01-06T08:51:49;99340.00;;;5.23;100.00
75794;BME280;64418;47.536;19.074;2024-01-06T08:54:15;99343.09;;;5.27;100.00
75794;BME280;64418;47.536;19.074;2024-01-06T08:56:44;99287.38;;;4.95;100.00
75794;BME280;64418;47.536;19.074;2024-01-06T08:59:10;99347.25;;;5.29;100.00
75794;BME280;64418;47.536;19.074;2024-01-06T09:01:37;99265.03;;;4.87;100.00
75794;BME280;64418;47.536;19.074;2024-01-06T09:04:05;99346.66;;;5.34;100.00
75794;BME280;64418;47.536;19.074;2024-01-06T09:06:31;99348.72;;;5.32;100.00
75794;BME280;64418;47.536;19.074;2024-01-06T09:08:58;99340.66;;;5.32;100.00
75794;BME280;64418;47.536;19.074;2024-01-06T09:11:24;99345.03;;;5.40;100.00
75794;BME280;64418;47.536;19.074;2024-01-06T09:13:54;99347.50;;;5.41;100.00
75794;BME280;64418;47.536;19.074;2024-01-06T09:16:25;99333.22;;;5.34;100.00
75794;BME280;64418;47.536;19.074;2024-01-06T09:18:52;99338.84;;;5.39;100.00
75794;BME280;64418;47.536;19.074;2024-01-06T09:21:20;99343.41;;;5.45;100.00
75794;BME280;64418;47.536;19.074;2024-01-06T09:23:47;99329.56;;;5.48;100.00
75794;BME280;64418;47.536;19.074;2024-01-06T09:26:13;99322.16;;;5.50;100.00
75794;BME280;64418;47.536;19.074;2024-01-06T09:28:39;99277.00;;;5.26;100.00
75794;BME280;64418;47.536;19.074;2024-01-06T09:31:19;99321.19;;;5.64;100.00
75794;BME280;64418;47.536;19.074;2024-01-06T09:33:48;99312.31;;;5.70;100.00
75794;BME280;64418;47.536;19.074;2024-01-06T09:36:14;99312.28;;;5.57;100.00
75794;BME280;64418;47.536;19.074;2024-01-06T09:38:45;99313.94;;;5.58;100.00
75794;BME280;64418;47.536;19.074;2024-01-06T09:43:46;99312.50;;;5.62;100.00
75794;BME280;64418;47.536;19.074;2024-01-06T09:46:25;99300.69;;;5.57;100.00
75794;BME280;64418;47.536;19.074;2024-01-06T09:48:59;99306.72;;;5.65;100.00
75794;BME280;64418;47.536;19.074;2024-01-06T09:51:34;99298.06;;;5.70;100.00
75794;BME280;64418;47.536;19.074;2024-01-06T09:54:07;99302.19;;;5.72;100.00
75794;BME280;64418;47.536;19.074;2024-01-06T09:56:35;99301.78;;;5.75;100.00
75794;BME280;64418;47.536;19.074;2024-01-06T09:59:05;99297.66;;;5.66;100.00
75794;BME280;64418;47.536;19.074;2024-01-06T10:07:00;99310.25;;;5.72;100.00
75794;BME280;64418;47.536;19.074;2024-01-06T10:13:24;99317.06;;;5.68;100.00
75794;BME280;64418;47.536;19.074;2024-01-06T10:15:53;99312.31;;;5.70;100.00
75794;BME280;64418;47.536;19.074;2024-01-06T10:18:40;99309.63;;;5.70;100.00
75794;BME280;64418;47.536;19.074;2024-01-06T10:21:28;99319.78;;;5.75;100.00
75794;BME280;64418;47.536;19.074;2024-01-06T10:24:08;99311.28;;;5.71;100.00
75794;BME280;64418;47.536;19.074;2024-01-06T10:26:38;99316.78;;;6.04;100.00
75794;BME280;64418;47.536;19.074;2024-01-06T10:29:06;99315.59;;;6.33;100.00
75794;BME280;64418;47.536;19.074;2024-01-06T10:31:32;99294.47;;;6.04;100.00
75794;BME280;64418;47.536;19.074;2024-01-06T10:34:01;99312.56;;;5.82;100.00
75794;BME280;64418;47.536;19.074;2024-01-06T10:36:27;99306.75;;;5.78;100.00
75794;BME280;64418;47.536;19.074;2024-01-06T10:38:55;99303.03;;;5.73;100.00
75794;BME280;64418;47.536;19.074;2024-01-06T10:41:51;99296.41;;;5.69;100.00
75794;BME280;64418;47.536;19.074;2024-01-06T10:44:23;99291.87;;;5.69;100.00
75794;BME280;64418;47.536;19.074;2024-01-06T10:46:52;99284.81;;;5.68;100.00
75794;BME280;64418;47.536;19.074;2024-01-06T10:49:23;99283.19;;;5.74;100.00
75794;BME280;64418;47.536;19.074;2024-01-06T10:51:50;99281.12;;;5.76;100.00
75794;BME280;64418;47.536;19.074;2024-01-06T10:54:18;99281.97;;;5.76;100.00
75794;BME280;64418;47.536;19.074;2024-01-06T10:56:51;99266.63;;;5.70;100.00
75794;BME280;64418;47.536;19.074;2024-01-06T10:59:20;99232.88;;;5.48;100.00
75794;BME280;64418;47.536;19.074;2024-01-06T11:01:51;99276.19;;;5.79;100.00
75794;BME280;64418;47.536;19.074;2024-01-06T11:04:19;99275.75;;;5.69;100.00
75794;BME280;64418;47.536;19.074;2024-01-06T11:06:46;99271.81;;;5.72;100.00
75794;BME280;64418;47.536;19.074;2024-01-06T11:09:19;99267.09;;;5.74;100.00
75794;BME280;64418;47.536;19.074;2024-01-06T11:11:49;99257.53;;;5.71;100.00
75794;BME280;64418;47.536;19.074;2024-01-06T11:14:21;99246.37;;;5.74;100.00
75794;BME280;64418;47.536;19.074;2024-01-06T11:16:48;99243.50;;;5.69;100.00
75794;BME280;64418;47.536;19.074;2024-01-06T11:19:43;99205.84;;;5.56;100.00
75794;BME280;64418;47.536;19.074;2024-01-06T11:22:21;99227.56;;;5.74;100.00
75794;BME280;64418;47.536;19.074;2024-01-06T11:24:49;99225.53;;;5.76;100.00
75794;BME280;64418;47.536;19.074;2024-01-06T11:27:25;99218.50;;;5.75;100.00
75794;BME280;64418;47.536;19.074;2024-01-06T11:29:51;99212.31;;;5.81;100.00
75794;BME280;64418;47.536;19.074;2024-01-06T11:32:19;99207.97;;;5.80;100.00
75794;BME280;64418;47.536;19.074;2024-01-06T11:34:47;99210.84;;;5.86;100.00
75794;BME280;64418;47.536;19.074;2024-01-06T11:37:14;99203.44;;;5.81;100.00
75794;BME280;64418;47.536;19.074;2024-01-06T11:39:41;99202.19;;;5.83;100.00
75794;BME280;64418;47.536;19.074;2024-01-06T11:42:10;99203.47;;;5.88;100.00
75794;BME280;64418;47.536;19.074;2024-01-06T11:44:38;99179.88;;;5.90;100.00
75794;BME280;64418;47.536;19.074;2024-01-06T11:47:05;99180.28;;;5.87;100.00
75794;BME280;64418;47.536;19.074;2024-01-06T11:49:32;99180.28;;;5.87;100.00
75794;BME280;64418;47.536;19.074;2024-01-06T11:52:01;99184.84;;;5.86;100.00
75794;BME280;64418;47.536;19.074;2024-01-06T11:54:27;99173.22;;;5.86;100.00
75794;BME280;64418;47.536;19.074;2024-01-06T11:56:54;99180.69;;;5.83;100.00
75794;BME280;64418;47.536;19.074;2024-01-06T11:59:19;99181.28;;;5.86;100.00
75794;BME280;64418;47.536;19.074;2024-01-06T12:01:47;99175.12;;;5.85;100.00
75794;BME280;64418;47.536;19.074;2024-01-06T12:04:14;99162.91;;;5.82;100.00
75794;BME280;64418;47.536;19.074;2024-01-06T12:06:42;99165.84;;;6.14;100.00
75794;BME280;64418;47.536;19.074;2024-01-06T12:09:09;99166.25;;;6.11;100.00
75794;BME280;64418;47.536;19.074;2024-01-06T12:11:36;99167.47;;;6.08;100.00
75794;BME280;64418;47.536;19.074;2024-01-06T12:14:02;99159.22;;;6.03;100.00
75794;BME280;64418;47.536;19.074;2024-01-06T12:16:27;99153.81;;;5.97;100.00
75794;BME280;64418;47.536;19.074;2024-01-06T12:18:56;99151.59;;;6.00;100.00
75794;BME280;64418;47.536;19.074;2024-01-06T12:21:22;99164.19;;;6.00;100.00
75794;BME280;64418;47.536;19.074;2024-01-06T12:23:49;99172.25;;;6.00;100.00
75794;BME280;64418;47.536;19.074;2024-01-06T12:26:16;99159.00;;;5.92;100.00
75794;BME280;64418;47.536;19.074;2024-01-06T12:28:44;99152.19;;;5.96;100.00
75794;BME280;64418;47.536;19.074;2024-01-06T12:31:10;99157.34;;;5.97;100.00
75794;BME280;64418;47.536;19.074;2024-01-06T12:33:37;99148.66;;;5.95;100.00
75794;BME280;64418;47.536;19.074;2024-01-06T12:36:07;99141.44;;;5.96;100.00
75794;BME280;64418;47.536;19.074;2024-01-06T12:38:35;99135.84;;;5.91;100.00
75794;BME280;64418;47.536;19.074;2024-01-06T12:41:01;99135.66;;;5.92;100.00
75794;BME280;64418;47.536;19.074;2024-01-06T12:43:30;99137.94;;;5.89;100.00
75794;BME280;64418;47.536;19.074;2024-01-06T12:45:57;99146.34;;;5.86;100.00
75794;BME280;64418;47.536;19.074;2024-01-06T12:48:22;99140.19;;;5.85;100.00
75794;BME280;64418;47.536;19.074;2024-01-06T12:50:48;99145.34;;;5.87;100.00
75794;BME280;64418;47.536;19.074;2024-01-06T12:53:16;99139.13;;;5.79;100.00
75794;BME280;64418;47.536;19.074;2024-01-06T12:55:43;99149.66;;;5.74;100.00
75794;BME280;64418;47.536;19.074;2024-01-06T12:58:08;99170.75;;;5.77;100.00
75794;BME280;64418;47.536;19.074;2024-01-06T13:00:34;99169.91;;;5.70;100.00
75794;BME280;64418;47.536;19.074;2024-01-06T13:03:01;99164.53;;;5.70;100.00